• Join FlightAware (Why Join?)
  • Login
  • US Flag 
06:15AM EDT


 

Airport Tracker/Info


-or-


 

Live Flight TrackerFlight Track Log ✈ JIA2566 ✈ 03-Aug-2013 ✈ KCLT - KILM

Flight Track Log - Related Links

Times and Time Zones

All times are in EDT time to prevent confusion due to time zone crossing. See the JIA2566 flight status page for this flight to view local times or setup timezone preferences in your user account.

Time Position Orientation Groundspeed Altitude Reporting Facility
EDT Latitude Longitude Course Direction KTS MPH feet Rate Location/Type
10:41PM 35.1972 -80.9381 168° South 155 178 1,400  Level Atlanta Center
10:42PM 35.1531 -80.9269 168° South 186 214 2,700 1,800 Climbing Atlanta Center
10:43PM 35.1292 -80.8922 130° Southeast 246 283 4,100 2,280 Climbing Atlanta Center
10:44PM 35.1125 -80.8067 103° East 271 312 6,500 2,400 Climbing Atlanta Center
10:45PM 35.0933 -80.7133 104° East 298 343 8,900 1,800 Climbing Atlanta Center
10:46PM 35.0622 -80.5478 103° East 315 362 11,300 1,560 Climbing Washington Center
10:47PM 35.0342 -80.4167 105° East 348 400 13,100 1,800 Climbing Washington Center
10:48PM 35.0161 -80.2964 100° East 382 440 14,900 1,860 Climbing Washington Center
10:49PM 34.9883 -80.1475 103° East 397 457 16,900 1,020 Climbing Washington Center
10:50PM 34.9553 -80.0292 109° East 402 463 17,000  Climbing Washington Center
10:51PM 34.9086 -79.8822 111° Southeast 410 472 17,000  Level Washington Center
10:52PM 34.8692 -79.7536 110° East 410 472 17,000  Level Washington Center
10:53PM 34.8317 -79.6303 110° East 404 465 17,000  Level Washington Center
10:54PM 34.7922 -79.5069 111° Southeast 393 452 17,000  Level Washington Center
10:55PM 34.7522 -79.3836 112° Southeast 393 452 17,000  Level Washington Center
10:56PM 34.7144 -79.2606 110° East 393 452 17,000  Level Washington Center
10:57PM 34.6742 -79.1403 112° Southeast 393 452 17,000  Level Washington Center
10:58PM 34.6381 -79.0200 110° East 387 445 17,000  Level Washington Center
10:59PM 34.6036 -78.9125 111° Southeast 382 440 17,000  Level Washington Center
11:00PM 34.5897 -78.8111 99° East 371 427 17,000  Level Washington Center
11:01PM 34.5747 -78.6592 97° East 371 427 17,000 -240 Level Washington Center
11:02PM 34.5617 -78.5225 97° East 371 427 16,600 -1,200 Descending Washington Center
11:03PM 34.5494 -78.4136 98° East 366 421 14,700 -1,980 Descending Washington Center
11:04PM 34.5400 -78.2922 95° East 350 403 12,600 -2,100 Descending Washington Center
11:05PM 34.5300 -78.1786 96° East 345 397 10,600 -2,040 Descending Washington Center
11:06PM 34.4964 -78.0792 112° Southeast 325 374 8,600 -2,160 Descending Washington Center
11:07PM 34.4544 -77.9947 121° Southeast 303 349 6,300 -2,340 Descending Washington Center
11:08PM 34.4100 -77.9156 124° Southeast 292 336 4,000 -1,920 Descending Washington Center
11:09PM 34.3742 -77.8364 119° Southeast 282 325 2,400 -1,380 Descending Washington Center
11:10PM 34.3328 -77.8153 157° South 203 234 1,400 -780 Descending Washington Center
11:11PM 34.3111 -77.8472 231° Southwest 109 125 900 -540 Descending Washington Center